Time,TemperatureF,DewpointF,PressureIn,WindDirection,WindDirectionDegrees,WindSpeedMPH,WindSpeedGustMPH,Humidity,HourlyPrecipIn,Conditions,Clouds,dailyrainin,SoftwareType,DateUTC
2013-04-08 00:01:00,40.1,37.7,29.96,WNW,292,0.0,3.0,91,0.00,,,0.00,LWC V2.10 B1813,2013-04-08 04:01:00,
2013-04-08 00:06:00,39.9,37.2,29.95,West,272,0.0,1.0,90,0.00,,,0.00,LWC V2.10 B1813,2013-04-08 04:06:00,
2013-04-08 00:11:00,39.7,37.3,29.96,WNW,289,1.0,2.0,91,0.00,,,0.00,LWC V2.10 B1813,2013-04-08 04:11:00,
2013-04-08 00:16:00,39.4,37.0,29.96,West,279,1.0,1.0,91,0.00,,,0.00,LWC V2.10 B1813,2013-04-08 04:16:00,
2013-04-08 00:31:00,39.1,37.0,29.96,West,263,1.0,2.0,92,0.00,,,0.00,LWC V2.10 B1813,2013-04-08 04:31:00,
2013-04-08 00:36:00,39.5,37.9,29.96,WNW,284,0.0,2.0,94,0.00,,,0.00,LWC V2.10 B1813,2013-04-08 04:36:00,
2013-04-08 00:41:00,39.5,37.6,29.96,WSW,258,0.0,1.0,93,0.00,,,0.00,LWC V2.10 B1813,2013-04-08 04:41:00,
2013-04-08 00:51:00,39.3,37.2,29.96,West,272,0.0,1.0,92,0.00,,,0.00,LWC V2.10 B1813,2013-04-08 04:51:00,
2013-04-08 00:56:00,39.3,37.4,29.96,WNW,284,0.0,1.0,93,0.00,,,0.00,LWC V2.10 B1813,2013-04-08 04:56:00,
2013-04-08 01:01:00,39.1,37.2,29.96,West,265,0.0,1.0,93,0.00,,,0.00,LWC V2.10 B1813,2013-04-08 05:01:00,
2013-04-08 01:11:00,38.9,37.1,29.95,WNW,282,1.0,1.0,93,0.00,,,0.00,LWC V2.10 B1813,2013-04-08 05:11:00,
2013-04-08 01:16:00,38.7,36.9,29.95,WNW,282,0.0,0.0,93,0.00,,,0.00,LWC V2.10 B1813,2013-04-08 05:16:00,
2013-04-08 01:21:00,38.5,36.9,29.96,West,280,0.0,1.0,94,0.00,,,0.00,LWC V2.10 B1813,2013-04-08 05:21:00,
2013-04-08 01:26:00,38.1,36.3,29.95,WNW,282,0.0,0.0,93,0.00,,,0.00,LWC V2.10 B1813,2013-04-08 05:26:00,
2013-04-08 01:31:00,37.8,36.2,29.95,West,281,0.0,1.0,94,0.00,,,0.00,LWC V2.10 B1813,2013-04-08 05:31:00,
2013-04-08 01:36:00,37.5,35.7,29.95,WNW,289,0.0,1.0,93,0.00,,,0.00,LWC V2.10 B1813,2013-04-08 05:36:00,
2013-04-08 01:41:00,37.2,35.6,29.95,WNW,289,0.0,0.0,94,0.00,,,0.00,LWC V2.10 B1813,2013-04-08 05:41:00,
2013-04-08 01:46:00,36.9,35.3,29.94,WNW,290,0.0,0.0,94,0.00,,,0.00,LWC V2.10 B1813,2013-04-08 05:46:00,
2013-04-08 01:56:00,36.4,34.8,29.95,WNW,290,1.0,1.0,94,0.00,,,0.00,LWC V2.10 B1813,2013-04-08 05:56:00,
2013-04-08 02:01:00,36.3,35.0,29.94,WNW,294,1.0,1.0,95,0.00,,,0.00,LWC V2.10 B1813,2013-04-08 06:01:00,
2013-04-08 02:06:00,36.3,35.0,29.95,WNW,286,1.0,1.0,95,0.00,,,0.00,LWC V2.10 B1813,2013-04-08 06:06:00,
2013-04-08 02:11:00,36.5,35.5,29.95,WNW,288,1.0,1.0,96,0.00,,,0.00,LWC V2.10 B1813,2013-04-08 06:11:00,
2013-04-08 02:16:00,36.7,35.7,29.94,West,277,0.0,0.0,96,0.00,,,0.00,LWC V2.10 B1813,2013-04-08 06:16:00,
2013-04-08 02:21:00,36.6,35.6,29.94,West,277,0.0,0.0,96,0.00,,,0.00,LWC V2.10 B1813,2013-04-08 06:21:00,
2013-04-08 02:31:00,35.5,34.2,29.94,West,277,0.0,0.0,95,0.00,,,0.00,LWC V2.10 B1813,2013-04-08 06:31:00,
2013-04-08 02:41:00,35.2,34.2,29.94,West,277,0.0,0.0,96,0.00,,,0.00,LWC V2.10 B1813,2013-04-08 06:41:00,
2013-04-08 02:46:00,35.1,34.1,29.94,West,277,0.0,0.0,96,0.00,,,0.00,LWC V2.10 B1813,2013-04-08 06:46:00,
2013-04-08 02:51:00,35.1,34.1,29.94,West,277,0.0,0.0,96,0.00,,,0.00,LWC V2.10 B1813,2013-04-08 06:51:00,
2013-04-08 03:01:00,35.1,34.3,29.94,West,272,0.0,0.0,97,0.00,,,0.00,LWC V2.10 B1813,2013-04-08 07:01:00,
2013-04-08 03:06:00,35.2,34.4,29.94,West,274,0.0,0.0,97,0.00,,,0.00,LWC V2.10 B1813,2013-04-08 07:06:00,
2013-04-08 03:16:00,35.0,34.2,29.94,West,276,0.0,0.0,97,0.00,,,0.00,LWC V2.10 B1813,2013-04-08 07:16:00,
2013-04-08 03:26:00,34.1,33.1,29.94,West,274,0.0,0.0,96,0.00,,,0.00,LWC V2.10 B1813,2013-04-08 07:26:00,
2013-04-08 03:31:00,33.8,32.8,29.94,West,275,0.0,0.0,96,0.00,,,0.00,LWC V2.10 B1813,2013-04-08 07:31:00,
2013-04-08 03:41:00,34.2,33.4,29.94,South,175,0.0,0.0,97,0.00,,,0.00,LWC V2.10 B1813,2013-04-08 07:41:00,
2013-04-08 03:51:00,33.7,32.9,29.94,South,175,0.0,0.0,97,0.00,,,0.00,LWC V2.10 B1813,2013-04-08 07:51:00,
2013-04-08 03:56:00,33.5,32.7,29.95,WNW,291,0.0,0.0,97,0.00,,,0.00,LWC V2.10 B1813,2013-04-08 07:56:00,
2013-04-08 04:06:00,34.1,33.3,29.95,WNW,291,0.0,0.0,97,0.00,,,0.00,LWC V2.10 B1813,2013-04-08 08:06:00,
2013-04-08 04:11:00,34.4,33.9,29.95,WNW,290,0.0,0.0,98,0.00,,,0.00,LWC V2.10 B1813,2013-04-08 08:11:00,
2013-04-08 04:16:00,34.3,33.5,29.95,WNW,296,0.0,0.0,97,0.00,,,0.00,LWC V2.10 B1813,2013-04-08 08:16:00,
2013-04-08 04:21:00,33.7,32.9,29.95,WNW,297,0.0,0.0,97,0.00,,,0.00,LWC V2.10 B1813,2013-04-08 08:21:00,
2013-04-08 04:26:00,33.3,32.5,29.95,WNW,297,0.0,0.0,97,0.00,,,0.00,LWC V2.10 B1813,2013-04-08 08:26:00,
2013-04-08 04:31:00,33.3,32.5,29.96,WNW,290,0.0,0.0,97,0.00,,,0.00,LWC V2.10 B1813,2013-04-08 08:31:00,
2013-04-08 04:41:00,33.1,32.3,29.96,West,272,0.0,0.0,97,0.00,,,0.00,LWC V2.10 B1813,2013-04-08 08:41:00,
2013-04-08 04:51:00,33.0,32.2,29.95,WNW,293,0.0,0.0,97,0.00,,,0.00,LWC V2.10 B1813,2013-04-08 08:51:00,
2013-04-08 04:56:00,32.9,32.1,29.95,WNW,286,0.0,0.0,97,0.00,,,0.00,LWC V2.10 B1813,2013-04-08 08:56:00,
2013-04-08 05:11:00,32.3,31.5,29.95,West,265,0.0,0.0,97,0.00,,,0.00,LWC V2.10 B1813,2013-04-08 09:11:00,
2013-04-08 05:16:00,32.1,31.3,29.96,West,266,0.0,0.0,97,0.00,,,0.00,LWC V2.10 B1813,2013-04-08 09:16:00,
2013-04-08 05:26:00,31.7,30.9,29.96,West,276,0.0,0.0,97,0.00,,,0.00,LWC V2.10 B1813,2013-04-08 09:26:00,
2013-04-08 05:31:00,32.1,31.6,29.96,West,262,0.0,0.0,98,0.00,,,0.00,LWC V2.10 B1813,2013-04-08 09:31:00,
2013-04-08 05:36:00,31.9,31.4,29.96,NW,317,0.0,0.0,98,0.00,,,0.00,LWC V2.10 B1813,2013-04-08 09:36:00,
2013-04-08 05:41:00,31.8,31.0,29.97,WSW,253,0.0,0.0,97,0.00,,,0.00,LWC V2.10 B1813,2013-04-08 09:41:00,
2013-04-08 05:46:00,32.4,31.9,29.97,WNW,293,0.0,0.0,98,0.00,,,0.00,LWC V2.10 B1813,2013-04-08 09:46:00,
2013-04-08 05:56:00,32.7,32.2,29.97,WNW,298,0.0,0.0,98,0.00,,,0.00,LWC V2.10 B1813,2013-04-08 09:56:00,
2013-04-08 06:01:00,32.2,31.7,29.97,WNW,298,0.0,0.0,98,0.00,,,0.00,LWC V2.10 B1813,2013-04-08 10:01:00,
2013-04-08 06:06:00,31.8,31.3,29.97,SSE,157,0.0,0.0,98,0.00,,,0.00,LWC V2.10 B1813,2013-04-08 10:06:00,
2013-04-08 06:16:00,31.1,30.4,29.98,East,92,0.0,0.0,97,0.00,,,0.00,LWC V2.10 B1813,2013-04-08 10:16:00,
2013-04-08 06:21:00,31.0,30.2,29.98,West,266,1.0,3.0,97,0.00,,,0.00,LWC V2.10 B1813,2013-04-08 10:21:00,
2013-04-08 06:26:00,31.1,30.6,29.97,WNW,286,2.0,2.0,98,0.00,,,0.00,LWC V2.10 B1813,2013-04-08 10:26:00,
2013-04-08 06:36:00,31.7,31.2,29.98,West,276,2.0,2.0,98,0.00,,,0.00,LWC V2.10 B1813,2013-04-08 10:36:00,
2013-04-08 06:46:00,32.1,31.6,29.98,NE,47,0.0,1.0,98,0.00,,,0.00,LWC V2.10 B1813,2013-04-08 10:46:00,
2013-04-08 06:51:00,32.3,31.8,29.99,WSW,258,0.0,2.0,98,0.00,,,0.00,LWC V2.10 B1813,2013-04-08 10:51:00,
2013-04-08 06:56:00,32.7,32.2,29.99,WNW,289,1.0,2.0,98,0.00,,,0.00,LWC V2.10 B1813,2013-04-08 10:56:00,
2013-04-08 07:06:00,34.0,33.5,29.99,NW,313,0.0,2.0,98,0.00,,,0.00,LWC V2.10 B1813,2013-04-08 11:06:00,
2013-04-08 07:11:00,34.5,34.0,29.99,East,80,0.0,1.0,98,0.00,,,0.00,LWC V2.10 B1813,2013-04-08 11:11:00,
2013-04-08 07:16:00,34.5,34.0,30.00,East,80,0.0,0.0,98,0.00,,,0.00,LWC V2.10 B1813,2013-04-08 11:16:00,
2013-04-08 07:26:00,34.6,34.1,30.01,ESE,111,0.0,1.0,98,0.00,,,0.00,LWC V2.10 B1813,2013-04-08 11:26:00,
2013-04-08 07:36:00,35.3,34.8,30.01,WNW,293,1.0,2.0,98,0.00,,,0.00,LWC V2.10 B1813,2013-04-08 11:36:00,
2013-04-08 07:41:00,35.8,35.3,30.01,WNW,302,0.0,2.0,98,0.00,,,0.00,LWC V2.10 B1813,2013-04-08 11:41:00,
2013-04-08 07:51:00,36.6,36.3,30.01,West,272,0.0,1.0,99,0.00,,,0.00,LWC V2.10 B1813,2013-04-08 11:51:00,
2013-04-08 07:56:00,37.0,36.7,30.00,WSW,248,0.0,0.0,99,0.00,,,0.00,LWC V2.10 B1813,2013-04-08 11:56:00,
2013-04-08 08:06:00,37.9,37.6,30.01,ESE,118,2.0,2.0,99,0.00,,,0.00,LWC V2.10 B1813,2013-04-08 12:06:00,
2013-04-08 08:16:00,37.9,37.6,30.01,ESE,114,1.0,4.0,99,0.00,,,0.00,LWC V2.10 B1813,2013-04-08 12:16:00,
2013-04-08 08:21:00,38.3,38.0,30.01,SE,140,0.0,0.0,99,0.00,,,0.00,LWC V2.10 B1813,2013-04-08 12:21:00,
2013-04-08 08:31:00,39.2,38.9,30.01,WNW,290,2.0,3.0,99,0.00,,,0.00,LWC V2.10 B1813,2013-04-08 12:31:00,
2013-04-08 08:36:00,39.6,39.3,30.01,NW,325,1.0,2.0,99,0.00,,,0.00,LWC V2.10 B1813,2013-04-08 12:36:00,
2013-04-08 08:41:00,40.3,40.0,30.01,WNW,290,2.0,4.0,99,0.00,,,0.00,LWC V2.10 B1813,2013-04-08 12:41:00,
2013-04-08 08:51:00,42.9,40.7,30.01,North,352,1.0,2.0,92,0.00,,,0.00,LWC V2.10 B1813,2013-04-08 12:51:00,
2013-04-08 08:56:00,43.8,40.8,30.01,WNW,291,0.0,1.0,89,0.00,,,0.00,LWC V2.10 B1813,2013-04-08 12:56:00,
2013-04-08 09:01:00,44.5,40.9,30.01,NE,36,0.0,0.0,87,0.00,,,0.00,LWC V2.10 B1813,2013-04-08 13:01:00,
2013-04-08 09:16:00,46.0,39.2,30.01,WNW,302,2.0,5.0,77,0.00,,,0.00,LWC V2.10 B1813,2013-04-08 13:16:00,
2013-04-08 09:31:00,46.4,38.2,30.01,WNW,288,5.0,5.0,73,0.00,,,0.00,LWC V2.10 B1813,2013-04-08 13:31:00,
2013-04-08 09:36:00,46.4,37.5,30.02,WNW,296,7.0,7.0,71,0.00,,,0.00,LWC V2.10 B1813,2013-04-08 13:36:00,
2013-04-08 09:41:00,46.4,36.8,30.02,NNW,334,2.0,10.0,69,0.00,,,0.00,LWC V2.10 B1813,2013-04-08 13:41:00,
2013-04-08 09:46:00,46.6,37.0,30.02,NNE,12,10.0,10.0,69,0.00,,,0.00,LWC V2.10 B1813,2013-04-08 13:46:00,
2013-04-08 09:51:00,46.8,36.8,30.02,NW,304,3.0,7.0,68,0.00,,,0.00,LWC V2.10 B1813,2013-04-08 13:51:00,
2013-04-08 09:56:00,46.8,36.4,30.03,North,10,4.0,10.0,67,0.00,,,0.00,LWC V2.10 B1813,2013-04-08 13:56:00,
2013-04-08 10:01:00,46.8,36.0,30.03,NNW,336,5.0,10.0,66,0.00,,,0.00,LWC V2.10 B1813,2013-04-08 14:01:00,
2013-04-08 10:11:00,47.2,36.4,30.04,ENE,59,10.0,12.0,66,0.00,,,0.00,LWC V2.10 B1813,2013-04-08 14:11:00,
2013-04-08 10:16:00,47.6,37.2,30.03,ENE,61,3.0,3.0,67,0.00,,,0.00,LWC V2.10 B1813,2013-04-08 14:16:00,
2013-04-08 10:21:00,47.9,36.3,30.04,NE,50,4.0,14.0,64,0.00,,,0.00,LWC V2.10 B1813,2013-04-08 14:21:00,
2013-04-08 10:31:00,48.1,36.5,30.04,WNW,289,6.0,10.0,64,0.00,,,0.00,LWC V2.10 B1813,2013-04-08 14:31:00,
2013-04-08 10:36:00,48.5,36.5,30.04,NW,322,4.0,6.0,63,0.00,,,0.00,LWC V2.10 B1813,2013-04-08 14:36:00,
2013-04-08 10:46:00,49.3,36.4,30.05,NNE,23,10.0,11.0,61,0.00,,,0.00,LWC V2.10 B1813,2013-04-08 14:46:00,
2013-04-08 10:51:00,49.3,36.4,30.05,North,2,1.0,8.0,61,0.00,,,0.00,LWC V2.10 B1813,2013-04-08 14:51:00,
2013-04-08 11:01:00,50.0,37.1,30.05,NE,37,8.0,8.0,61,0.00,,,0.00,LWC V2.10 B1813,2013-04-08 15:01:00,
2013-04-08 11:06:00,50.4,36.6,30.05,WNW,301,3.0,10.0,59,0.00,,,0.00,LWC V2.10 B1813,2013-04-08 15:06:00,
2013-04-08 11:11:00,50.9,36.7,30.06,NNW,339,5.0,8.0,58,0.00,,,0.00,LWC V2.10 B1813,2013-04-08 15:11:00,
2013-04-08 11:16:00,51.5,37.7,30.05,WNW,299,5.0,9.0,59,0.00,,,0.00,LWC V2.10 B1813,2013-04-08 15:16:00,
2013-04-08 11:21:00,51.6,36.9,30.05,NNW,327,2.0,9.0,57,0.00,,,0.00,LWC V2.10 B1813,2013-04-08 15:21:00,
2013-04-08 11:26:00,51.8,36.6,30.05,NE,45,2.0,4.0,56,0.00,,,0.00,LWC V2.10 B1813,2013-04-08 15:26:00,
2013-04-08 11:31:00,52.0,37.2,30.05,WSW,252,2.0,7.0,57,0.00,,,0.00,LWC V2.10 B1813,2013-04-08 15:31:00,
2013-04-08 11:41:00,52.5,36.3,30.05,NW,311,6.0,9.0,54,0.00,,,0.00,LWC V2.10 B1813,2013-04-08 15:41:00,
2013-04-08 11:46:00,52.4,37.2,30.05,North,350,4.0,12.0,56,0.00,,,0.00,LWC V2.10 B1813,2013-04-08 15:46:00,
2013-04-08 11:56:00,53.1,37.4,30.05,WNW,302,3.0,6.0,55,0.00,,,0.00,LWC V2.10 B1813,2013-04-08 15:56:00,
2013-04-08 12:01:00,53.3,36.1,30.04,NW,311,6.0,8.0,52,0.00,,,0.00,LWC V2.10 B1813,2013-04-08 16:01:00,
2013-04-08 12:11:00,53.8,35.6,30.04,NNW,336,10.0,10.0,50,0.00,,,0.00,LWC V2.10 B1813,2013-04-08 16:11:00,
2013-04-08 12:16:00,53.7,36.0,30.04,NW,315,2.0,11.0,51,0.00,,,0.00,LWC V2.10 B1813,2013-04-08 16:16:00,
2013-04-08 12:21:00,53.5,35.3,30.03,NW,318,3.0,12.0,50,0.00,,,0.00,LWC V2.10 B1813,2013-04-08 16:21:00,
2013-04-08 12:26:00,53.6,35.9,30.03,ENE,59,2.0,11.0,51,0.00,,,0.00,LWC V2.10 B1813,2013-04-08 16:26:00,
2013-04-08 12:31:00,54.7,36.4,30.03,East,93,3.0,7.0,50,0.00,,,0.00,LWC V2.10 B1813,2013-04-08 16:31:00,
2013-04-08 12:36:00,55.0,36.2,30.03,NE,48,3.0,5.0,49,0.00,,,0.00,LWC V2.10 B1813,2013-04-08 16:36:00,
2013-04-08 12:41:00,54.8,36.0,30.03,NW,325,11.0,11.0,49,0.00,,,0.00,LWC V2.10 B1813,2013-04-08 16:41:00,
2013-04-08 12:46:00,54.9,36.1,30.03,NW,322,6.0,8.0,49,0.00,,,0.00,LWC V2.10 B1813,2013-04-08 16:46:00,
2013-04-08 12:56:00,54.7,35.9,30.03,North,359,4.0,6.0,49,0.00,,,0.00,LWC V2.10 B1813,2013-04-08 16:56:00,
2013-04-08 13:01:00,55.2,35.9,30.03,ENE,78,5.0,7.0,48,0.00,,,0.00,LWC V2.10 B1813,2013-04-08 17:01:00,
2013-04-08 13:06:00,55.3,35.4,30.04,NW,311,5.0,8.0,47,0.00,,,0.00,LWC V2.10 B1813,2013-04-08 17:06:00,
2013-04-08 13:11:00,55.5,35.6,30.03,NNW,339,3.0,6.0,47,0.00,,,0.00,LWC V2.10 B1813,2013-04-08 17:11:00,
2013-04-08 13:16:00,55.7,34.7,30.03,NW,318,2.0,7.0,45,0.00,,,0.00,LWC V2.10 B1813,2013-04-08 17:16:00,
2013-04-08 13:26:00,56.0,35.0,30.03,WSW,256,3.0,3.0,45,0.00,,,0.00,LWC V2.10 B1813,2013-04-08 17:26:00,
2013-04-08 13:31:00,57.1,36.5,30.03,South,175,2.0,5.0,46,0.00,,,0.00,LWC V2.10 B1813,2013-04-08 17:31:00,
2013-04-08 13:36:00,57.4,35.1,30.03,North,354,4.0,9.0,43,0.00,,,0.00,LWC V2.10 B1813,2013-04-08 17:36:00,
2013-04-08 13:41:00,57.2,34.9,30.03,NNE,19,2.0,5.0,43,0.00,,,0.00,LWC V2.10 B1813,2013-04-08 17:41:00,
2013-04-08 13:51:00,57.5,34.6,30.03,NNW,346,7.0,8.0,42,0.00,,,0.00,LWC V2.10 B1813,2013-04-08 17:51:00,
2013-04-08 13:56:00,58.2,34.6,30.03,North,352,3.0,5.0,41,0.00,,,0.00,LWC V2.10 B1813,2013-04-08 17:56:00,
2013-04-08 14:01:00,58.3,32.8,30.03,WNW,289,6.0,7.0,38,0.00,,,0.00,LWC V2.10 B1813,2013-04-08 18:01:00,
2013-04-08 14:06:00,58.1,33.9,30.02,NW,306,3.0,4.0,40,0.00,,,0.00,LWC V2.10 B1813,2013-04-08 18:06:00,
2013-04-08 14:11:00,58.8,35.8,30.03,North,355,3.0,8.0,42,0.00,,,0.00,LWC V2.10 B1813,2013-04-08 18:11:00,
2013-04-08 14:21:00,59.0,35.3,30.03,NNW,336,4.0,9.0,41,0.00,,,0.00,LWC V2.10 B1813,2013-04-08 18:21:00,
2013-04-08 14:31:00,59.1,34.2,30.02,ESE,123,2.0,3.0,39,0.00,,,0.00,LWC V2.10 B1813,2013-04-08 18:31:00,
2013-04-08 14:41:00,60.0,35.0,30.02,West,280,3.0,4.0,39,0.00,,,0.00,LWC V2.10 B1813,2013-04-08 18:41:00,
2013-04-08 14:46:00,60.0,34.3,30.02,North,350,1.0,4.0,38,0.00,,,0.00,LWC V2.10 B1813,2013-04-08 18:46:00,
2013-04-08 14:51:00,60.6,33.5,30.03,North,6,5.0,8.0,36,0.00,,,0.00,LWC V2.10 B1813,2013-04-08 18:51:00,
2013-04-08 14:56:00,60.4,34.7,30.02,ENE,76,3.0,4.0,38,0.00,,,0.00,LWC V2.10 B1813,2013-04-08 18:56:00,
2013-04-08 15:16:00,60.5,34.1,30.02,NW,320,2.0,4.0,37,0.00,,,0.00,LWC V2.10 B1813,2013-04-08 19:16:00,
2013-04-08 15:21:00,60.9,33.8,30.01,NNE,19,4.0,5.0,36,0.00,,,0.00,LWC V2.10 B1813,2013-04-08 19:21:00,
2013-04-08 15:26:00,61.0,33.2,30.01,WNW,291,1.0,6.0,35,0.00,,,0.00,LWC V2.10 B1813,2013-04-08 19:26:00,
2013-04-08 15:31:00,61.1,33.2,30.00,North,357,1.0,2.0,35,0.00,,,0.00,LWC V2.10 B1813,2013-04-08 19:31:00,
2013-04-08 15:36:00,61.7,33.0,30.00,South,170,1.0,4.0,34,0.00,,,0.00,LWC V2.10 B1813,2013-04-08 19:36:00,
2013-04-08 15:41:00,62.0,33.3,30.00,NNW,345,3.0,12.0,34,0.00,,,0.00,LWC V2.10 B1813,2013-04-08 19:41:00,
2013-04-08 15:46:00,61.6,32.2,30.00,West,272,3.0,5.0,33,0.00,,,0.00,LWC V2.10 B1813,2013-04-08 19:46:00,
2013-04-08 15:51:00,61.6,33.0,30.00,WNW,292,4.0,4.0,34,0.00,,,0.00,LWC V2.10 B1813,2013-04-08 19:51:00,
2013-04-08 15:56:00,62.1,33.4,30.00,ENE,72,2.0,2.0,34,0.00,,,0.00,LWC V2.10 B1813,2013-04-08 19:56:00,
2013-04-08 16:01:00,62.1,32.7,30.00,South,176,1.0,2.0,33,0.00,,,0.00,LWC V2.10 B1813,2013-04-08 20:01:00,
2013-04-08 16:06:00,62.9,32.6,30.00,NE,35,1.0,4.0,32,0.00,,,0.00,LWC V2.10 B1813,2013-04-08 20:06:00,
2013-04-08 16:11:00,63.0,32.7,30.00,WNW,297,4.0,5.0,32,0.00,,,0.00,LWC V2.10 B1813,2013-04-08 20:11:00,
2013-04-08 16:26:00,62.9,32.6,30.00,WSW,248,5.0,8.0,32,0.00,,,0.00,LWC V2.10 B1813,2013-04-08 20:26:00,
2013-04-08 16:36:00,63.1,31.2,29.99,North,350,2.0,4.0,30,0.00,,,0.00,LWC V2.10 B1813,2013-04-08 20:36:00,
2013-04-08 16:41:00,63.0,32.7,29.99,NE,38,0.0,3.0,32,0.00,,,0.00,LWC V2.10 B1813,2013-04-08 20:41:00,
2013-04-08 16:46:00,63.1,32.8,29.99,East,92,2.0,3.0,32,0.00,,,0.00,LWC V2.10 B1813,2013-04-08 20:46:00,
2013-04-08 16:56:00,63.0,32.7,29.98,NNW,348,2.0,2.0,32,0.00,,,0.00,LWC V2.10 B1813,2013-04-08 20:56:00,
2013-04-08 17:01:00,63.2,32.1,29.99,West,277,2.0,2.0,31,0.00,,,0.00,LWC V2.10 B1813,2013-04-08 21:01:00,
2013-04-08 17:06:00,63.2,32.1,29.99,WSW,255,4.0,4.0,31,0.00,,,0.00,LWC V2.10 B1813,2013-04-08 21:06:00,
2013-04-08 17:16:00,63.4,32.2,29.98,NNE,13,2.0,2.0,31,0.00,,,0.00,LWC V2.10 B1813,2013-04-08 21:16:00,
2013-04-08 17:21:00,63.5,32.3,29.98,NE,38,0.0,3.0,31,0.00,,,0.00,LWC V2.10 B1813,2013-04-08 21:21:00,
2013-04-08 17:26:00,63.6,31.6,29.98,WNW,295,0.0,1.0,30,0.00,,,0.00,LWC V2.10 B1813,2013-04-08 21:26:00,
2013-04-08 17:36:00,63.4,32.2,29.98,ESE,123,2.0,3.0,31,0.00,,,0.00,LWC V2.10 B1813,2013-04-08 21:36:00,
2013-04-08 17:46:00,63.3,32.9,29.98,SW,232,0.0,0.0,32,0.00,,,0.00,LWC V2.10 B1813,2013-04-08 21:46:00,
2013-04-08 17:51:00,63.9,34.2,29.98,SW,232,0.0,0.0,33,0.00,,,0.00,LWC V2.10 B1813,2013-04-08 21:51:00,
2013-04-08 17:56:00,64.3,33.0,29.99,North,359,0.0,1.0,31,0.00,,,0.00,LWC V2.10 B1813,2013-04-08 21:56:00,
2013-04-08 18:01:00,64.5,34.8,29.99,NNW,341,0.0,0.0,33,0.00,,,0.00,LWC V2.10 B1813,2013-04-08 22:01:00,
2013-04-08 18:06:00,64.4,33.9,29.99,NNW,341,0.0,0.0,32,0.00,,,0.00,LWC V2.10 B1813,2013-04-08 22:06:00,
2013-04-08 18:11:00,64.1,32.0,29.99,WNW,294,1.0,1.0,30,0.00,,,0.00,LWC V2.10 B1813,2013-04-08 22:11:00,
2013-04-08 18:16:00,63.2,34.4,29.99,NW,324,0.0,0.0,34,0.00,,,0.00,LWC V2.10 B1813,2013-04-08 22:16:00,
2013-04-08 18:21:00,61.7,35.2,29.99,NW,322,0.0,0.0,37,0.00,,,0.00,LWC V2.10 B1813,2013-04-08 22:21:00,
2013-04-08 18:26:00,59.8,36.1,29.99,NW,322,0.0,1.0,41,0.00,,,0.00,LWC V2.10 B1813,2013-04-08 22:26:00,
2013-04-08 18:31:00,58.1,35.1,30.00,WNW,286,1.0,1.0,42,0.00,,,0.00,LWC V2.10 B1813,2013-04-08 22:31:00,
2013-04-08 18:36:00,56.8,37.3,30.00,WNW,288,1.0,1.0,48,0.00,,,0.00,LWC V2.10 B1813,2013-04-08 22:36:00,
2013-04-08 18:41:00,55.6,36.7,30.00,WNW,287,1.0,2.0,49,0.00,,,0.00,LWC V2.10 B1813,2013-04-08 22:41:00,
2013-04-08 18:46:00,54.6,36.3,30.00,WNW,284,1.0,2.0,50,0.00,,,0.00,LWC V2.10 B1813,2013-04-08 22:46:00,
2013-04-08 18:56:00,53.4,36.2,30.00,WNW,291,1.0,1.0,52,0.00,,,0.00,LWC V2.10 B1813,2013-04-08 22:56:00,
2013-04-08 19:01:00,52.9,36.7,30.00,WNW,282,0.0,0.0,54,0.00,,,0.00,LWC V2.10 B1813,2013-04-08 23:01:00,
2013-04-08 19:06:00,52.4,36.7,30.00,WNW,297,1.0,2.0,55,0.00,,,0.00,LWC V2.10 B1813,2013-04-08 23:06:00,
2013-04-08 19:11:00,51.7,36.5,30.00,WNW,293,1.0,1.0,56,0.00,,,0.00,LWC V2.10 B1813,2013-04-08 23:11:00,
2013-04-08 19:26:00,50.4,37.0,30.00,WNW,295,0.0,1.0,60,0.00,,,0.00,LWC V2.10 B1813,2013-04-08 23:26:00,
2013-04-08 19:31:00,50.1,37.2,30.00,WNW,296,0.0,0.0,61,0.00,,,0.00,LWC V2.10 B1813,2013-04-08 23:31:00,
2013-04-08 19:41:00,49.3,37.2,30.00,WNW,295,0.0,0.0,63,0.00,,,0.00,LWC V2.10 B1813,2013-04-08 23:41:00,
2013-04-08 19:46:00,49.0,37.4,29.99,WNW,296,2.0,2.0,64,0.00,,,0.00,LWC V2.10 B1813,2013-04-08 23:46:00,
2013-04-08 19:51:00,48.5,37.7,30.00,WNW,298,2.0,2.0,66,0.00,,,0.00,LWC V2.10 B1813,2013-04-08 23:51:00,
2013-04-08 19:56:00,48.1,37.3,30.00,WNW,290,1.0,1.0,66,0.00,,,0.00,LWC V2.10 B1813,2013-04-08 23:56:00,
2013-04-08 20:01:00,47.8,37.0,30.00,WNW,283,0.0,1.0,66,0.00,,,0.00,LWC V2.10 B1813,2013-04-09 00:01:00,
2013-04-08 20:06:00,47.7,37.3,30.00,WNW,283,1.0,1.0,67,0.00,,,0.00,LWC V2.10 B1813,2013-04-09 00:06:00,
2013-04-08 20:11:00,47.5,37.5,30.01,WNW,283,0.0,1.0,68,0.00,,,0.00,LWC V2.10 B1813,2013-04-09 00:11:00,
2013-04-08 20:16:00,47.1,37.5,30.01,WNW,283,1.0,1.0,69,0.00,,,0.00,LWC V2.10 B1813,2013-04-09 00:16:00,
2013-04-08 20:21:00,46.7,37.1,30.01,WNW,283,0.0,1.0,69,0.00,,,0.00,LWC V2.10 B1813,2013-04-09 00:21:00,
2013-04-08 20:26:00,46.4,36.8,30.02,WNW,283,1.0,1.0,69,0.00,,,0.00,LWC V2.10 B1813,2013-04-09 00:26:00,
2013-04-08 20:31:00,46.1,36.5,30.02,WNW,283,1.0,1.0,69,0.00,,,0.00,LWC V2.10 B1813,2013-04-09 00:31:00,
2013-04-08 20:36:00,46.0,36.4,30.02,WNW,283,0.0,1.0,69,0.00,,,0.00,LWC V2.10 B1813,2013-04-09 00:36:00,
2013-04-08 20:41:00,45.6,36.7,30.02,WNW,283,0.0,0.0,71,0.00,,,0.00,LWC V2.10 B1813,2013-04-09 00:41:00,
2013-04-08 20:46:00,45.3,36.5,30.02,WNW,287,0.0,0.0,71,0.00,,,0.00,LWC V2.10 B1813,2013-04-09 00:46:00,
2013-04-08 20:51:00,45.1,36.6,30.02,WNW,286,0.0,0.0,72,0.00,,,0.00,LWC V2.10 B1813,2013-04-09 00:51:00,
2013-04-08 21:01:00,44.8,36.3,30.02,WNW,286,0.0,0.0,72,0.00,,,0.00,LWC V2.10 B1813,2013-04-09 01:01:00,
2013-04-08 21:06:00,44.7,36.2,30.02,WNW,286,0.0,0.0,72,0.00,,,0.00,LWC V2.10 B1813,2013-04-09 01:06:00,
2013-04-08 21:11:00,44.6,36.5,30.02,WNW,290,0.0,0.0,73,0.00,,,0.00,LWC V2.10 B1813,2013-04-09 01:11:00,
2013-04-08 21:16:00,44.6,36.5,30.02,WNW,294,0.0,0.0,73,0.00,,,0.00,LWC V2.10 B1813,2013-04-09 01:16:00,
2013-04-08 21:21:00,44.6,36.1,30.02,WNW,294,0.0,0.0,72,0.00,,,0.00,LWC V2.10 B1813,2013-04-09 01:21:00,
2013-04-08 21:26:00,44.6,36.5,30.02,WNW,294,0.0,0.0,73,0.00,,,0.00,LWC V2.10 B1813,2013-04-09 01:26:00,
2013-04-08 21:31:00,44.3,36.2,30.02,WNW,294,0.0,0.0,73,0.00,,,0.00,LWC V2.10 B1813,2013-04-09 01:31:00,
2013-04-08 21:36:00,44.2,36.4,30.02,WNW,294,0.0,0.0,74,0.00,,,0.00,LWC V2.10 B1813,2013-04-09 01:36:00,
2013-04-08 21:41:00,44.1,36.4,30.02,WNW,294,0.0,0.0,74,0.00,,,0.00,LWC V2.10 B1813,2013-04-09 01:41:00,
2013-04-08 21:46:00,44.1,36.4,30.02,WNW,294,0.0,0.0,74,0.00,,,0.00,LWC V2.10 B1813,2013-04-09 01:46:00,
2013-04-08 21:56:00,44.0,35.9,30.02,WNW,294,0.0,0.0,73,0.00,,,0.00,LWC V2.10 B1813,2013-04-09 01:56:00,
2013-04-08 22:01:00,43.9,36.2,30.02,WNW,294,0.0,0.0,74,0.00,,,0.00,LWC V2.10 B1813,2013-04-09 02:01:00,
2013-04-08 22:06:00,43.9,36.5,30.02,WNW,294,0.0,0.0,75,0.00,,,0.00,LWC V2.10 B1813,2013-04-09 02:06:00,
2013-04-08 22:11:00,43.9,36.2,30.02,West,281,0.0,0.0,74,0.00,,,0.00,LWC V2.10 B1813,2013-04-09 02:11:00,
2013-04-08 22:16:00,44.2,36.4,30.02,WNW,290,0.0,0.0,74,0.00,,,0.00,LWC V2.10 B1813,2013-04-09 02:16:00,
2013-04-08 22:21:00,44.2,36.8,30.02,WNW,290,0.0,0.0,75,0.00,,,0.00,LWC V2.10 B1813,2013-04-09 02:21:00,
2013-04-08 22:31:00,44.3,36.9,30.02,WNW,294,0.0,0.0,75,0.00,,,0.00,LWC V2.10 B1813,2013-04-09 02:31:00,
2013-04-08 22:36:00,44.3,36.9,30.01,WNW,294,0.0,0.0,75,0.00,,,0.00,LWC V2.10 B1813,2013-04-09 02:36:00,
2013-04-08 22:41:00,44.3,37.2,30.01,WNW,293,0.0,0.0,76,0.00,,,0.00,LWC V2.10 B1813,2013-04-09 02:41:00,
2013-04-08 22:46:00,44.4,37.0,30.01,WNW,293,0.0,0.0,75,0.00,,,0.00,LWC V2.10 B1813,2013-04-09 02:46:00,
2013-04-08 22:51:00,44.5,37.4,30.01,WNW,293,0.0,0.0,76,0.00,,,0.00,LWC V2.10 B1813,2013-04-09 02:51:00,
2013-04-08 23:01:00,44.5,36.7,30.01,WNW,293,0.0,0.0,74,0.00,,,0.00,LWC V2.10 B1813,2013-04-09 03:01:00,
2013-04-08 23:06:00,44.5,37.1,30.01,WNW,293,0.0,0.0,75,0.00,,,0.00,LWC V2.10 B1813,2013-04-09 03:06:00,
2013-04-08 23:11:00,44.5,36.7,30.01,WNW,294,0.0,0.0,74,0.00,,,0.00,LWC V2.10 B1813,2013-04-09 03:11:00,
2013-04-08 23:16:00,44.6,37.2,30.01,WNW,294,0.0,0.0,75,0.00,,,0.00,LWC V2.10 B1813,2013-04-09 03:16:00,
2013-04-08 23:21:00,44.5,37.1,30.00,WNW,294,0.0,0.0,75,0.00,,,0.00,LWC V2.10 B1813,2013-04-09 03:21:00,
2013-04-08 23:26:00,44.5,37.4,30.00,NNE,21,1.0,3.0,76,0.00,,,0.00,LWC V2.10 B1813,2013-04-09 03:26:00,
2013-04-08 23:31:00,44.5,37.4,30.00,NNW,336,0.0,0.0,76,0.00,,,0.00,LWC V2.10 B1813,2013-04-09 03:31:00,
2013-04-08 23:36:00,44.6,37.5,30.00,NNW,336,0.0,0.0,76,0.00,,,0.00,LWC V2.10 B1813,2013-04-09 03:36:00,
2013-04-08 23:46:00,44.7,37.9,30.00,NNW,336,0.0,0.0,77,0.00,,,0.00,LWC V2.10 B1813,2013-04-09 03:46:00,
2013-04-08 23:56:00,44.5,37.7,30.00,NNW,336,0.0,0.0,77,0.00,,,0.00,LWC V2.10 B1813,2013-04-09 03:56:00,